sensor_id;sensor_type;location;lat;lon;timestamp;temperature;humidity
63277;DHT22;49403;51.046;13.780;2023-05-07T00:00:24;15.00;80.90
63277;DHT22;49403;51.046;13.780;2023-05-07T00:00:55;15.00;80.90
63277;DHT22;49403;51.046;13.780;2023-05-07T00:01:26;15.00;81.00
63277;DHT22;49403;51.046;13.780;2023-05-07T00:01:57;15.00;81.00
63277;DHT22;49403;51.046;13.780;2023-05-07T00:02:29;15.00;81.20
63277;DHT22;49403;51.046;13.780;2023-05-07T00:03:00;15.00;81.30
63277;DHT22;49403;51.046;13.780;2023-05-07T00:03:32;15.00;81.30
63277;DHT22;49403;51.046;13.780;2023-05-07T00:04:04;15.00;81.20
63277;DHT22;49403;51.046;13.780;2023-05-07T00:04:35;15.00;81.20
63277;DHT22;49403;51.046;13.780;2023-05-07T00:05:08;15.00;81.40
63277;DHT22;49403;51.046;13.780;2023-05-07T00:05:39;15.00;80.90
63277;DHT22;49403;51.046;13.780;2023-05-07T00:06:12;15.00;80.80
63277;DHT22;49403;51.046;13.780;2023-05-07T00:06:43;15.00;80.80
63277;DHT22;49403;51.046;13.780;2023-05-07T00:07:14;15.00;80.70
63277;DHT22;49403;51.046;13.780;2023-05-07T00:07:47;14.90;80.90
63277;DHT22;49403;51.046;13.780;2023-05-07T00:08:18;15.00;81.00
63277;DHT22;49403;51.046;13.780;2023-05-07T00:08:49;15.00;81.00
63277;DHT22;49403;51.046;13.780;2023-05-07T00:09:20;15.00;81.30
63277;DHT22;49403;51.046;13.780;2023-05-07T00:09:51;15.20;81.30
63277;DHT22;49403;51.046;13.780;2023-05-07T00:10:23;14.90;81.00
63277;DHT22;49403;51.046;13.780;2023-05-07T00:10:54;14.90;80.70
63277;DHT22;49403;51.046;13.780;2023-05-07T00:11:25;15.00;80.80
63277;DHT22;49403;51.046;13.780;2023-05-07T00:11:56;15.00;80.80
63277;DHT22;49403;51.046;13.780;2023-05-07T00:12:28;15.00;80.80
63277;DHT22;49403;51.046;13.780;2023-05-07T00:13:02;15.00;81.10
63277;DHT22;49403;51.046;13.780;2023-05-07T00:13:33;16.60;82.50
63277;DHT22;49403;51.046;13.780;2023-05-07T00:14:06;15.00;81.00
63277;DHT22;49403;51.046;13.780;2023-05-07T00:14:37;15.10;81.20
63277;DHT22;49403;51.046;13.780;2023-05-07T00:15:08;15.00;81.00
63277;DHT22;49403;51.046;13.780;2023-05-07T00:15:39;15.10;80.90
63277;DHT22;49403;51.046;13.780;2023-05-07T00:16:11;14.70;80.40
63277;DHT22;49403;51.046;13.780;2023-05-07T00:16:42;15.10;81.00
63277;DHT22;49403;51.046;13.780;2023-05-07T00:17:13;15.10;81.30
63277;DHT22;49403;51.046;13.780;2023-05-07T00:17:44;15.00;81.00
63277;DHT22;49403;51.046;13.780;2023-05-07T00:18:15;14.80;80.80
63277;DHT22;49403;51.046;13.780;2023-05-07T00:18:47;15.90;82.00
63277;DHT22;49403;51.046;13.780;2023-05-07T00:19:18;15.10;81.30
63277;DHT22;49403;51.046;13.780;2023-05-07T00:19:49;15.10;81.20
63277;DHT22;49403;51.046;13.780;2023-05-07T00:20:20;15.10;81.90
63277;DHT22;49403;51.046;13.780;2023-05-07T00:20:51;15.00;81.10
63277;DHT22;49403;51.046;13.780;2023-05-07T00:21:22;15.10;81.10
63277;DHT22;49403;51.046;13.780;2023-05-07T00:21:57;14.10;80.00
63277;DHT22;49403;51.046;13.780;2023-05-07T00:22:29;16.10;82.00
63277;DHT22;49403;51.046;13.780;2023-05-07T00:23:01;15.10;80.70
63277;DHT22;49403;51.046;13.780;2023-05-07T00:23:32;15.10;80.70
63277;DHT22;49403;51.046;13.780;2023-05-07T00:24:03;15.10;81.00
63277;DHT22;49403;51.046;13.780;2023-05-07T00:24:34;15.10;80.70
63277;DHT22;49403;51.046;13.780;2023-05-07T00:25:06;15.00;80.60
63277;DHT22;49403;51.046;13.780;2023-05-07T00:25:37;15.10;80.80
63277;DHT22;49403;51.046;13.780;2023-05-07T00:26:08;15.00;80.90
63277;DHT22;49403;51.046;13.780;2023-05-07T00:26:39;15.00;80.80
63277;DHT22;49403;51.046;13.780;2023-05-07T00:27:10;15.30;81.30
63277;DHT22;49403;51.046;13.780;2023-05-07T00:27:42;15.10;80.80
63277;DHT22;49403;51.046;13.780;2023-05-07T00:28:13;15.00;80.50
63277;DHT22;49403;51.046;13.780;2023-05-07T00:28:44;15.00;80.50
63277;DHT22;49403;51.046;13.780;2023-05-07T00:29:15;14.80;80.30
63277;DHT22;49403;51.046;13.780;2023-05-07T00:29:46;15.00;80.80
63277;DHT22;49403;51.046;13.780;2023-05-07T00:30:17;15.00;80.60
63277;DHT22;49403;51.046;13.780;2023-05-07T00:30:49;15.00;80.50
63277;DHT22;49403;51.046;13.780;2023-05-07T00:31:20;15.10;80.70
63277;DHT22;49403;51.046;13.780;2023-05-07T00:31:51;15.00;80.60
63277;DHT22;49403;51.046;13.780;2023-05-07T00:32:24;15.00;81.30
63277;DHT22;49403;51.046;13.780;2023-05-07T00:32:55;15.00;81.40
63277;DHT22;49403;51.046;13.780;2023-05-07T00:33:26;15.00;80.60
63277;DHT22;49403;51.046;13.780;2023-05-07T00:33:58;15.00;80.50
63277;DHT22;49403;51.046;13.780;2023-05-07T00:34:29;15.00;80.80
63277;DHT22;49403;51.046;13.780;2023-05-07T00:35:00;15.00;80.60
63277;DHT22;49403;51.046;13.780;2023-05-07T00:35:31;15.00;80.70
63277;DHT22;49403;51.046;13.780;2023-05-07T00:36:03;15.00;80.70
63277;DHT22;49403;51.046;13.780;2023-05-07T00:36:34;15.00;80.60
63277;DHT22;49403;51.046;13.780;2023-05-07T00:37:06;14.90;80.60
63277;DHT22;49403;51.046;13.780;2023-05-07T00:37:40;15.00;80.70
63277;DHT22;49403;51.046;13.780;2023-05-07T00:38:11;15.00;80.60
63277;DHT22;49403;51.046;13.780;2023-05-07T00:38:45;15.00;80.60
63277;DHT22;49403;51.046;13.780;2023-05-07T00:39:17;15.00;80.60
63277;DHT22;49403;51.046;13.780;2023-05-07T00:39:49;15.00;81.30
63277;DHT22;49403;51.046;13.780;2023-05-07T00:40:20;15.60;81.50
63277;DHT22;49403;51.046;13.780;2023-05-07T00:40:51;15.00;80.70
63277;DHT22;49403;51.046;13.780;2023-05-07T00:41:22;14.90;80.50
63277;DHT22;49403;51.046;13.780;2023-05-07T00:41:53;15.40;81.30
63277;DHT22;49403;51.046;13.780;2023-05-07T00:42:25;14.90;80.70
63277;DHT22;49403;51.046;13.780;2023-05-07T00:42:56;14.90;80.80
63277;DHT22;49403;51.046;13.780;2023-05-07T00:43:28;14.90;80.90
63277;DHT22;49403;51.046;13.780;2023-05-07T00:44:00;14.90;81.00
63277;DHT22;49403;51.046;13.780;2023-05-07T00:44:32;14.80;81.10
63277;DHT22;49403;51.046;13.780;2023-05-07T00:45:04;14.90;81.30
63277;DHT22;49403;51.046;13.780;2023-05-07T00:45:35;14.80;81.30
63277;DHT22;49403;51.046;13.780;2023-05-07T00:46:07;15.00;81.50
63277;DHT22;49403;51.046;13.780;2023-05-07T00:46:38;14.90;81.40
63277;DHT22;49403;51.046;13.780;2023-05-07T00:47:09;14.90;81.20
63277;DHT22;49403;51.046;13.780;2023-05-07T00:47:41;14.90;81.20
63277;DHT22;49403;51.046;13.780;2023-05-07T00:48:12;14.90;81.20
63277;DHT22;49403;51.046;13.780;2023-05-07T00:48:44;15.00;81.30
63277;DHT22;49403;51.046;13.780;2023-05-07T00:49:16;14.80;81.00
63277;DHT22;49403;51.046;13.780;2023-05-07T00:49:47;14.80;81.00
63277;DHT22;49403;51.046;13.780;2023-05-07T00:50:18;14.70;81.10
63277;DHT22;49403;51.046;13.780;2023-05-07T00:50:50;14.60;81.50
63277;DHT22;49403;51.046;13.780;2023-05-07T00:51:23;14.60;81.40
63277;DHT22;49403;51.046;13.780;2023-05-07T00:51:54;14.60;81.50
63277;DHT22;49403;51.046;13.780;2023-05-07T00:52:26;14.50;81.80
63277;DHT22;49403;51.046;13.780;2023-05-07T00:52:57;14.50;82.00
63277;DHT22;49403;51.046;13.780;2023-05-07T00:53:30;14.50;82.00
63277;DHT22;49403;51.046;13.780;2023-05-07T00:54:02;14.50;82.20
63277;DHT22;49403;51.046;13.780;2023-05-07T00:54:35;14.50;82.20
63277;DHT22;49403;51.046;13.780;2023-05-07T00:55:06;14.50;82.30
63277;DHT22;49403;51.046;13.780;2023-05-07T00:55:42;14.80;82.80
63277;DHT22;49403;51.046;13.780;2023-05-07T00:56:13;14.40;82.40
63277;DHT22;49403;51.046;13.780;2023-05-07T00:56:48;14.40;82.30
63277;DHT22;49403;51.046;13.780;2023-05-07T00:57:19;14.50;82.50
63277;DHT22;49403;51.046;13.780;2023-05-07T00:57:52;14.40;82.30
63277;DHT22;49403;51.046;13.780;2023-05-07T00:58:23;14.50;82.50
63277;DHT22;49403;51.046;13.780;2023-05-07T00:58:55;14.50;82.50
63277;DHT22;49403;51.046;13.780;2023-05-07T00:59:27;14.60;82.50
63277;DHT22;49403;51.046;13.780;2023-05-07T00:59:58;14.60;82.60
63277;DHT22;49403;51.046;13.780;2023-05-07T01:00:30;14.60;82.50
63277;DHT22;49403;51.046;13.780;2023-05-07T01:01:02;14.60;82.40
63277;DHT22;49403;51.046;13.780;2023-05-07T01:01:34;14.60;82.30
63277;DHT22;49403;51.046;13.780;2023-05-07T01:02:05;14.60;82.30
63277;DHT22;49403;51.046;13.780;2023-05-07T01:02:37;14.70;82.30
63277;DHT22;49403;51.046;13.780;2023-05-07T01:03:08;14.60;82.10
63277;DHT22;49403;51.046;13.780;2023-05-07T01:03:40;14.60;82.10
63277;DHT22;49403;51.046;13.780;2023-05-07T01:04:11;14.70;82.20
63277;DHT22;49403;51.046;13.780;2023-05-07T01:04:45;14.70;82.10
63277;DHT22;49403;51.046;13.780;2023-05-07T01:05:18;14.70;82.00
63277;DHT22;49403;51.046;13.780;2023-05-07T01:05:51;14.70;81.80
63277;DHT22;49403;51.046;13.780;2023-05-07T01:06:24;14.70;81.60
63277;DHT22;49403;51.046;13.780;2023-05-07T01:06:58;14.90;81.80
63277;DHT22;49403;51.046;13.780;2023-05-07T01:07:31;14.70;81.60
63277;DHT22;49403;51.046;13.780;2023-05-07T01:08:04;14.70;81.60
63277;DHT22;49403;51.046;13.780;2023-05-07T01:08:36;14.70;81.60
63277;DHT22;49403;51.046;13.780;2023-05-07T01:09:07;14.70;81.50
63277;DHT22;49403;51.046;13.780;2023-05-07T01:09:40;14.70;81.60
63277;DHT22;49403;51.046;13.780;2023-05-07T01:10:12;14.70;81.60
63277;DHT22;49403;51.046;13.780;2023-05-07T01:10:44;14.80;81.60
63277;DHT22;49403;51.046;13.780;2023-05-07T01:11:15;14.70;81.50
63277;DHT22;49403;51.046;13.780;2023-05-07T01:11:48;14.90;81.50
63277;DHT22;49403;51.046;13.780;2023-05-07T01:12:20;14.70;81.30
63277;DHT22;49403;51.046;13.780;2023-05-07T01:12:52;14.70;81.30
63277;DHT22;49403;51.046;13.780;2023-05-07T01:13:25;14.70;81.30
63277;DHT22;49403;51.046;13.780;2023-05-07T01:13:59;14.70;81.10
63277;DHT22;49403;51.046;13.780;2023-05-07T01:14:31;14.70;81.00
63277;DHT22;49403;51.046;13.780;2023-05-07T01:15:04;14.70;81.00
63277;DHT22;49403;51.046;13.780;2023-05-07T01:15:37;14.70;81.10
63277;DHT22;49403;51.046;13.780;2023-05-07T01:16:11;14.70;81.00
63277;DHT22;49403;51.046;13.780;2023-05-07T01:16:42;14.60;80.80
63277;DHT22;49403;51.046;13.780;2023-05-07T01:17:13;14.70;80.90
63277;DHT22;49403;51.046;13.780;2023-05-07T01:17:45;14.70;80.90
63277;DHT22;49403;51.046;13.780;2023-05-07T01:18:17;14.70;80.80
63277;DHT22;49403;51.046;13.780;2023-05-07T01:18:48;14.70;80.70
63277;DHT22;49403;51.046;13.780;2023-05-07T01:19:20;14.70;81.00
63277;DHT22;49403;51.046;13.780;2023-05-07T01:19:51;14.60;80.90
63277;DHT22;49403;51.046;13.780;2023-05-07T01:20:24;14.70;81.20
63277;DHT22;49403;51.046;13.780;2023-05-07T01:20:58;14.50;81.00
63277;DHT22;49403;51.046;13.780;2023-05-07T01:21:33;14.70;81.10
63277;DHT22;49403;51.046;13.780;2023-05-07T01:22:08;14.70;81.00
63277;DHT22;49403;51.046;13.780;2023-05-07T01:22:40;14.70;81.00
63277;DHT22;49403;51.046;13.780;2023-05-07T01:23:12;14.70;81.00
63277;DHT22;49403;51.046;13.780;2023-05-07T01:23:44;14.70;80.90
63277;DHT22;49403;51.046;13.780;2023-05-07T01:24:16;14.70;80.80
63277;DHT22;49403;51.046;13.780;2023-05-07T01:24:47;14.70;80.80
63277;DHT22;49403;51.046;13.780;2023-05-07T01:25:19;14.60;80.60
63277;DHT22;49403;51.046;13.780;2023-05-07T01:25:54;14.80;80.80
63277;DHT22;49403;51.046;13.780;2023-05-07T01:26:25;14.60;80.70
63277;DHT22;49403;51.046;13.780;2023-05-07T01:26:57;14.60;80.60
63277;DHT22;49403;51.046;13.780;2023-05-07T01:27:28;14.70;80.90
63277;DHT22;49403;51.046;13.780;2023-05-07T01:27:59;14.60;80.80
63277;DHT22;49403;51.046;13.780;2023-05-07T01:28:32;14.60;80.80
63277;DHT22;49403;51.046;13.780;2023-05-07T01:29:03;14.60;80.80
63277;DHT22;49403;51.046;13.780;2023-05-07T01:29:34;14.60;80.80
63277;DHT22;49403;51.046;13.780;2023-05-07T01:30:06;14.50;80.70
63277;DHT22;49403;51.046;13.780;2023-05-07T01:30:40;14.60;80.80
63277;DHT22;49403;51.046;13.780;2023-05-07T01:31:14;14.60;80.80
63277;DHT22;49403;51.046;13.780;2023-05-07T01:31:46;14.60;80.80
63277;DHT22;49403;51.046;13.780;2023-05-07T01:32:27;14.60;81.00
63277;DHT22;49403;51.046;13.780;2023-05-07T01:33:35;14.60;81.30
63277;DHT22;49403;51.046;13.780;2023-05-07T01:34:08;14.70;81.20
63277;DHT22;49403;51.046;13.780;2023-05-07T01:34:40;15.70;82.20
63277;DHT22;49403;51.046;13.780;2023-05-07T01:35:15;14.60;81.10
63277;DHT22;49403;51.046;13.780;2023-05-07T01:35:51;14.60;81.10
63277;DHT22;49403;51.046;13.780;2023-05-07T01:36:23;14.60;81.00
63277;DHT22;49403;51.046;13.780;2023-05-07T01:36:59;14.60;81.00
63277;DHT22;49403;51.046;13.780;2023-05-07T01:37:30;14.60;80.90
63277;DHT22;49403;51.046;13.780;2023-05-07T01:38:03;14.60;81.00
63277;DHT22;49403;51.046;13.780;2023-05-07T01:38:36;14.60;81.00
63277;DHT22;49403;51.046;13.780;2023-05-07T01:39:09;14.60;81.00
63277;DHT22;49403;51.046;13.780;2023-05-07T01:39:42;14.60;81.10
63277;DHT22;49403;51.046;13.780;2023-05-07T01:40:14;14.60;81.10
63277;DHT22;49403;51.046;13.780;2023-05-07T01:40:46;14.70;81.20
63277;DHT22;49403;51.046;13.780;2023-05-07T01:41:17;14.60;81.00
63277;DHT22;49403;51.046;13.780;2023-05-07T01:41:49;14.60;81.00
63277;DHT22;49403;51.046;13.780;2023-05-07T01:42:21;14.60;80.90
63277;DHT22;49403;51.046;13.780;2023-05-07T01:42:53;14.60;80.90
63277;DHT22;49403;51.046;13.780;2023-05-07T01:43:25;14.60;80.90
63277;DHT22;49403;51.046;13.780;2023-05-07T01:43:58;14.60;81.10
63277;DHT22;49403;51.046;13.780;2023-05-07T01:44:30;14.60;81.00
63277;DHT22;49403;51.046;13.780;2023-05-07T01:45:01;14.60;81.00
63277;DHT22;49403;51.046;13.780;2023-05-07T01:45:33;14.60;81.00
63277;DHT22;49403;51.046;13.780;2023-05-07T01:46:05;14.60;81.00
63277;DHT22;49403;51.046;13.780;2023-05-07T01:46:36;14.60;80.80
63277;DHT22;49403;51.046;13.780;2023-05-07T01:47:08;14.60;80.80
63277;DHT22;49403;51.046;13.780;2023-05-07T01:47:40;14.60;80.90
63277;DHT22;49403;51.046;13.780;2023-05-07T01:48:12;14.60;80.90
63277;DHT22;49403;51.046;13.780;2023-05-07T01:48:44;14.60;80.90
63277;DHT22;49403;51.046;13.780;2023-05-07T01:49:17;14.60;80.90
63277;DHT22;49403;51.046;13.780;2023-05-07T01:49:48;14.70;80.90
63277;DHT22;49403;51.046;13.780;2023-05-07T01:50:20;14.60;80.70
63277;DHT22;49403;51.046;13.780;2023-05-07T01:50:52;14.60;81.50
63277;DHT22;49403;51.046;13.780;2023-05-07T01:51:24;14.50;80.80
63277;DHT22;49403;51.046;13.780;2023-05-07T01:51:55;14.60;80.90
63277;DHT22;49403;51.046;13.780;2023-05-07T01:52:27;14.60;80.90
63277;DHT22;49403;51.046;13.780;2023-05-07T01:52:59;14.50;80.90
63277;DHT22;49403;51.046;13.780;2023-05-07T01:53:36;14.60;81.00
63277;DHT22;49403;51.046;13.780;2023-05-07T01:54:07;14.50;80.90
63277;DHT22;49403;51.046;13.780;2023-05-07T01:54:38;14.50;81.00
63277;DHT22;49403;51.046;13.780;2023-05-07T01:55:10;14.50;81.10
63277;DHT22;49403;51.046;13.780;2023-05-07T01:55:42;14.50;81.20
63277;DHT22;49403;51.046;13.780;2023-05-07T01:56:14;14.40;81.20
63277;DHT22;49403;51.046;13.780;2023-05-07T01:56:45;14.50;81.30
63277;DHT22;49403;51.046;13.780;2023-05-07T01:57:18;14.50;81.50
63277;DHT22;49403;51.046;13.780;2023-05-07T01:57:50;14.50;81.10
63277;DHT22;49403;51.046;13.780;2023-05-07T01:58:24;14.60;81.10
63277;DHT22;49403;51.046;13.780;2023-05-07T01:58:55;14.70;81.20
63277;DHT22;49403;51.046;13.780;2023-05-07T01:59:27;14.70;81.20
63277;DHT22;49403;51.046;13.780;2023-05-07T01:59:58;14.60;81.00
63277;DHT22;49403;51.046;13.780;2023-05-07T02:00:29;14.60;81.10
63277;DHT22;49403;51.046;13.780;2023-05-07T02:01:01;14.60;80.80
63277;DHT22;49403;51.046;13.780;2023-05-07T02:01:32;14.60;80.70
63277;DHT22;49403;51.046;13.780;2023-05-07T02:02:03;14.60;80.70
63277;DHT22;49403;51.046;13.780;2023-05-07T02:02:35;14.70;80.80
63277;DHT22;49403;51.046;13.780;2023-05-07T02:03:06;14.70;80.60
63277;DHT22;49403;51.046;13.780;2023-05-07T02:03:37;14.70;80.40
63277;DHT22;49403;51.046;13.780;2023-05-07T02:04:08;14.70;80.50
63277;DHT22;49403;51.046;13.780;2023-05-07T02:04:40;14.70;80.30
63277;DHT22;49403;51.046;13.780;2023-05-07T02:05:11;14.70;80.30
63277;DHT22;49403;51.046;13.780;2023-05-07T02:05:42;14.70;80.30
63277;DHT22;49403;51.046;13.780;2023-05-07T02:06:14;14.70;80.30
63277;DHT22;49403;51.046;13.780;2023-05-07T02:06:45;14.70;80.30
63277;DHT22;49403;51.046;13.780;2023-05-07T02:07:16;14.70;80.40
63277;DHT22;49403;51.046;13.780;2023-05-07T02:07:48;14.60;80.20
63277;DHT22;49403;51.046;13.780;2023-05-07T02:08:19;14.70;80.40
63277;DHT22;49403;51.046;13.780;2023-05-07T02:08:50;14.70;80.30
63277;DHT22;49403;51.046;13.780;2023-05-07T02:09:22;14.70;80.40
63277;DHT22;49403;51.046;13.780;2023-05-07T02:09:53;14.70;80.40
63277;DHT22;49403;51.046;13.780;2023-05-07T02:10:25;14.60;80.40
63277;DHT22;49403;51.046;13.780;2023-05-07T02:10:59;14.60;80.40
63277;DHT22;49403;51.046;13.780;2023-05-07T02:11:31;14.60;80.40
63277;DHT22;49403;51.046;13.780;2023-05-07T02:12:05;14.60;80.50
63277;DHT22;49403;51.046;13.780;2023-05-07T02:12:36;14.50;80.60
63277;DHT22;49403;51.046;13.780;2023-05-07T02:13:07;14.50;80.70
63277;DHT22;49403;51.046;13.780;2023-05-07T02:13:39;14.60;80.80
63277;DHT22;49403;51.046;13.780;2023-05-07T02:14:10;14.20;80.50
63277;DHT22;49403;51.046;13.780;2023-05-07T02:14:41;14.50;80.80
63277;DHT22;49403;51.046;13.780;2023-05-07T02:15:13;14.60;80.80
63277;DHT22;49403;51.046;13.780;2023-05-07T02:15:44;14.10;80.10
63277;DHT22;49403;51.046;13.780;2023-05-07T02:16:19;14.60;80.60
63277;DHT22;49403;51.046;13.780;2023-05-07T02:16:54;14.90;80.80
63277;DHT22;49403;51.046;13.780;2023-05-07T02:17:25;14.50;80.40
63277;DHT22;49403;51.046;13.780;2023-05-07T02:18:04;14.70;80.90
63277;DHT22;49403;51.046;13.780;2023-05-07T02:18:39;13.30;79.30
63277;DHT22;49403;51.046;13.780;2023-05-07T02:19:17;14.60;80.70
63277;DHT22;49403;51.046;13.780;2023-05-07T02:19:51;14.50;80.60
63277;DHT22;49403;51.046;13.780;2023-05-07T02:20:23;14.50;80.80
63277;DHT22;49403;51.046;13.780;2023-05-07T02:20:54;15.30;81.60
63277;DHT22;49403;51.046;13.780;2023-05-07T02:21:25;14.50;80.80
63277;DHT22;49403;51.046;13.780;2023-05-07T02:21:57;14.60;80.80
63277;DHT22;49403;51.046;13.780;2023-05-07T02:22:28;14.60;80.80
63277;DHT22;49403;51.046;13.780;2023-05-07T02:23:00;14.60;80.90
63277;DHT22;49403;51.046;13.780;2023-05-07T02:23:31;14.50;80.70
63277;DHT22;49403;51.046;13.780;2023-05-07T02:24:03;14.70;80.80
63277;DHT22;49403;51.046;13.780;2023-05-07T02:24:34;14.60;80.70
63277;DHT22;49403;51.046;13.780;2023-05-07T02:25:06;14.60;80.70
63277;DHT22;49403;51.046;13.780;2023-05-07T02:25:38;14.60;80.60
63277;DHT22;49403;51.046;13.780;2023-05-07T02:26:09;14.70;80.80
63277;DHT22;49403;51.046;13.780;2023-05-07T02:26:40;14.60;80.60
63277;DHT22;49403;51.046;13.780;2023-05-07T02:27:12;14.60;80.60
63277;DHT22;49403;51.046;13.780;2023-05-07T02:27:43;14.60;80.50
63277;DHT22;49403;51.046;13.780;2023-05-07T02:28:17;14.60;80.40
63277;DHT22;49403;51.046;13.780;2023-05-07T02:28:49;14.60;80.30
63277;DHT22;49403;51.046;13.780;2023-05-07T02:29:23;14.70;80.50
63277;DHT22;49403;51.046;13.780;2023-05-07T02:29:54;14.70;80.50
63277;DHT22;49403;51.046;13.780;2023-05-07T02:30:26;14.80;80.50
63277;DHT22;49403;51.046;13.780;2023-05-07T02:30:57;14.60;80.20
63277;DHT22;49403;51.046;13.780;2023-05-07T02:31:30;14.70;80.40
63277;DHT22;49403;51.046;13.780;2023-05-07T02:32:01;14.70;80.40
63277;DHT22;49403;51.046;13.780;2023-05-07T02:32:33;14.70;80.40
63277;DHT22;49403;51.046;13.780;2023-05-07T02:33:04;14.70;80.50
63277;DHT22;49403;51.046;13.780;2023-05-07T02:33:37;14.70;80.50
63277;DHT22;49403;51.046;13.780;2023-05-07T02:34:09;14.70;80.30
63277;DHT22;49403;51.046;13.780;2023-05-07T02:34:40;14.70;80.20
63277;DHT22;49403;51.046;13.780;2023-05-07T02:35:12;14.70;80.20
63277;DHT22;49403;51.046;13.780;2023-05-07T02:35:43;14.70;80.10
63277;DHT22;49403;51.046;13.780;2023-05-07T02:36:14;14.70;80.20
63277;DHT22;49403;51.046;13.780;2023-05-07T02:36:46;14.70;80.10
63277;DHT22;49403;51.046;13.780;2023-05-07T02:37:17;14.70;80.00
63277;DHT22;49403;51.046;13.780;2023-05-07T02:37:48;14.70;80.00
63277;DHT22;49403;51.046;13.780;2023-05-07T02:38:19;14.70;79.90
63277;DHT22;49403;51.046;13.780;2023-05-07T02:38:50;14.70;79.80
63277;DHT22;49403;51.046;13.780;2023-05-07T02:39:22;14.70;79.70
63277;DHT22;49403;51.046;13.780;2023-05-07T02:39:53;14.80;79.90
63277;DHT22;49403;51.046;13.780;2023-05-07T02:40:24;14.70;79.90
63277;DHT22;49403;51.046;13.780;2023-05-07T02:40:55;14.70;79.80
63277;DHT22;49403;51.046;13.780;2023-05-07T02:41:26;14.70;79.90
63277;DHT22;49403;51.046;13.780;2023-05-07T02:41:58;14.70;79.80
63277;DHT22;49403;51.046;13.780;2023-05-07T02:42:29;14.70;80.20
63277;DHT22;49403;51.046;13.780;2023-05-07T02:43:01;13.60;78.80
63277;DHT22;49403;51.046;13.780;2023-05-07T02:43:32;14.70;79.90
63277;DHT22;49403;51.046;13.780;2023-05-07T02:44:03;14.70;79.90
63277;DHT22;49403;51.046;13.780;2023-05-07T02:44:35;14.70;79.90
63277;DHT22;49403;51.046;13.780;2023-05-07T02:45:06;14.70;79.80
63277;DHT22;49403;51.046;13.780;2023-05-07T02:45:38;14.70;79.80
63277;DHT22;49403;51.046;13.780;2023-05-07T02:46:09;14.70;79.90
63277;DHT22;49403;51.046;13.780;2023-05-07T02:46:41;14.70;79.80
63277;DHT22;49403;51.046;13.780;2023-05-07T02:47:15;14.70;79.80
63277;DHT22;49403;51.046;13.780;2023-05-07T02:47:46;14.60;79.70
63277;DHT22;49403;51.046;13.780;2023-05-07T02:48:17;14.60;79.90
63277;DHT22;49403;51.046;13.780;2023-05-07T02:48:48;14.60;80.00
63277;DHT22;49403;51.046;13.780;2023-05-07T02:49:20;14.50;80.70
63277;DHT22;49403;51.046;13.780;2023-05-07T02:49:51;14.60;80.10
63277;DHT22;49403;51.046;13.780;2023-05-07T02:50:23;14.50;80.10
63277;DHT22;49403;51.046;13.780;2023-05-07T02:50:57;14.50;80.20
63277;DHT22;49403;51.046;13.780;2023-05-07T02:51:30;14.40;80.10
63277;DHT22;49403;51.046;13.780;2023-05-07T02:52:02;14.50;80.30
63277;DHT22;49403;51.046;13.780;2023-05-07T02:52:33;14.50;80.40
63277;DHT22;49403;51.046;13.780;2023-05-07T02:53:04;14.50;80.40
63277;DHT22;49403;51.046;13.780;2023-05-07T02:53:35;14.50;80.40
63277;DHT22;49403;51.046;13.780;2023-05-07T02:54:07;14.50;80.40
63277;DHT22;49403;51.046;13.780;2023-05-07T02:54:38;14.50;80.30
63277;DHT22;49403;51.046;13.780;2023-05-07T02:55:09;14.30;80.10
63277;DHT22;49403;51.046;13.780;2023-05-07T02:55:41;14.50;80.40
63277;DHT22;49403;51.046;13.780;2023-05-07T02:56:12;14.50;80.40
63277;DHT22;49403;51.046;13.780;2023-05-07T02:56:43;14.50;80.40
63277;DHT22;49403;51.046;13.780;2023-05-07T02:57:15;14.50;80.40
63277;DHT22;49403;51.046;13.780;2023-05-07T02:57:46;14.50;80.30
63277;DHT22;49403;51.046;13.780;2023-05-07T02:58:17;14.50;80.40
63277;DHT22;49403;51.046;13.780;2023-05-07T02:58:49;14.50;80.30
63277;DHT22;49403;51.046;13.780;2023-05-07T02:59:20;14.50;80.30
63277;DHT22;49403;51.046;13.780;2023-05-07T02:59:51;14.50;80.20
63277;DHT22;49403;51.046;13.780;2023-05-07T03:00:23;14.50;80.20
63277;DHT22;49403;51.046;13.780;2023-05-07T03:00:54;14.40;80.30
63277;DHT22;49403;51.046;13.780;2023-05-07T03:01:26;14.50;80.60
63277;DHT22;49403;51.046;13.780;2023-05-07T03:01:57;13.20;79.30
63277;DHT22;49403;51.046;13.780;2023-05-07T03:02:28;14.40;80.90
63277;DHT22;49403;51.046;13.780;2023-05-07T03:02:59;14.60;80.90
63277;DHT22;49403;51.046;13.780;2023-05-07T03:03:31;14.40;80.90
63277;DHT22;49403;51.046;13.780;2023-05-07T03:04:02;14.40;80.70
63277;DHT22;49403;51.046;13.780;2023-05-07T03:04:33;14.40;80.70
63277;DHT22;49403;51.046;13.780;2023-05-07T03:05:04;14.50;80.70
63277;DHT22;49403;51.046;13.780;2023-05-07T03:05:36;14.50;80.60
63277;DHT22;49403;51.046;13.780;2023-05-07T03:06:07;14.40;80.50
63277;DHT22;49403;51.046;13.780;2023-05-07T03:06:38;13.80;79.90
63277;DHT22;49403;51.046;13.780;2023-05-07T03:07:09;14.40;80.50
63277;DHT22;49403;51.046;13.780;2023-05-07T03:07:41;14.40;80.40
63277;DHT22;49403;51.046;13.780;2023-05-07T03:08:16;14.40;80.40
63277;DHT22;49403;51.046;13.780;2023-05-07T03:08:49;14.40;80.50
63277;DHT22;49403;51.046;13.780;2023-05-07T03:09:21;14.40;80.50
63277;DHT22;49403;51.046;13.780;2023-05-07T03:09:55;14.40;80.50
63277;DHT22;49403;51.046;13.780;2023-05-07T03:10:26;14.40;80.60
63277;DHT22;49403;51.046;13.780;2023-05-07T03:10:58;14.40;80.70
63277;DHT22;49403;51.046;13.780;2023-05-07T03:11:30;14.30;80.70
63277;DHT22;49403;51.046;13.780;2023-05-07T03:12:03;14.30;80.80
63277;DHT22;49403;51.046;13.780;2023-05-07T03:12:34;14.30;81.00
63277;DHT22;49403;51.046;13.780;2023-05-07T03:13:06;14.30;81.10
63277;DHT22;49403;51.046;13.780;2023-05-07T03:13:40;14.30;81.30
63277;DHT22;49403;51.046;13.780;2023-05-07T03:14:12;14.30;81.40
63277;DHT22;49403;51.046;13.780;2023-05-07T03:14:43;14.30;81.50
63277;DHT22;49403;51.046;13.780;2023-05-07T03:15:14;14.20;81.40
63277;DHT22;49403;51.046;13.780;2023-05-07T03:15:46;14.20;81.40
63277;DHT22;49403;51.046;13.780;2023-05-07T03:16:17;14.30;81.50
63277;DHT22;49403;51.046;13.780;2023-05-07T03:16:51;14.20;81.50
63277;DHT22;49403;51.046;13.780;2023-05-07T03:17:23;13.50;80.80
63277;DHT22;49403;51.046;13.780;2023-05-07T03:17:54;14.30;81.70
63277;DHT22;49403;51.046;13.780;2023-05-07T03:18:25;14.30;81.70
63277;DHT22;49403;51.046;13.780;2023-05-07T03:18:56;14.10;81.60